Time;durP1;ratioP1;P1;durP2;ratioP2;P2;SDS_P1;SDS_P2;PMS_P1;PMS_P2;Temp;Humidity;BMP_temperature;BMP_pressure;BME280_temperature;BME280_humidity;BME280_pressure;Samples;Min_cycle;Max_cycle;Signal;HPM_P1;HPM_P2
2024/04/04 00:01:16;;;;;;;18.40;4.63;;;10.70;99.90;;;;;;4987698;28;20065;-83
2024/04/04 00:03:44;;;;;;;15.57;4.68;;;10.80;99.90;;;;;;4969031;28;20073;-81
2024/04/04 00:06:10;;;;;;;19.02;4.72;;;10.80;99.90;;;;;;4968505;28;20073;-83
2024/04/04 00:08:36;;;;;;;16.77;4.82;;;10.80;99.90;;;;;;4985945;28;20073;-83
2024/04/04 00:11:12;;;;;;;16.30;4.22;;;10.70;99.90;;;;;;4985457;28;20096;-82
2024/04/04 00:13:38;;;;;;;19.38;4.82;;;10.80;99.90;;;;;;4970854;28;20049;-87
2024/04/04 00:16:04;;;;;;;21.92;4.85;;;10.80;99.90;;;;;;4973129;28;20050;-83
2024/04/04 00:18:31;;;;;;;20.50;4.57;;;10.80;99.90;;;;;;4977859;28;20041;-81
2024/04/04 00:20:57;;;;;;;18.65;4.47;;;10.80;99.90;;;;;;4970848;28;20109;-82
2024/04/04 00:23:23;;;;;;;15.73;4.45;;;10.80;99.90;;;;;;4967183;28;20103;-82
2024/04/04 00:25:49;;;;;;;19.83;5.20;;;10.80;99.90;;;;;;4971107;28;20042;-82
2024/04/04 00:28:17;;;;;;;19.20;4.22;;;10.80;99.90;;;;;;4969194;28;20054;-83
2024/04/04 00:30:44;;;;;;;15.98;3.72;;;10.70;99.90;;;;;;4974144;28;20041;-81
2024/04/04 00:33:10;;;;;;;15.43;4.47;;;10.80;99.90;;;;;;4985358;28;20422;-83
2024/04/04 00:35:35;;;;;;;15.68;4.18;;;10.70;99.90;;;;;;4983761;28;20048;-82
2024/04/04 00:38:02;;;;;;;14.75;4.65;;;10.80;99.90;;;;;;4989893;28;20057;-85
2024/04/04 00:40:33;;;;;;;14.85;4.72;;;10.70;99.90;;;;;;4973262;28;20033;-83
2024/04/04 00:42:59;;;;;;;17.58;4.93;;;10.70;99.90;;;;;;4972054;28;20046;-85
2024/04/04 00:45:25;;;;;;;14.20;4.35;;;10.70;99.90;;;;;;4969788;28;20060;-82
2024/04/04 00:47:51;;;;;;;13.98;4.18;;;10.70;99.90;;;;;;4972802;28;20042;-83
2024/04/04 00:50:17;;;;;;;23.13;5.35;;;10.60;99.90;;;;;;4982775;28;20044;-87
2024/04/04 00:52:43;;;;;;;16.88;4.55;;;10.60;99.90;;;;;;4969599;28;20068;-82
2024/04/04 00:55:08;;;;;;;15.18;4.38;;;10.60;99.90;;;;;;4969030;28;20218;-81
2024/04/04 00:57:36;;;;;;;14.70;4.05;;;10.60;99.90;;;;;;4979045;28;20046;-82
2024/04/04 01:00:03;;;;;;;19.15;4.53;;;10.60;99.90;;;;;;4985119;28;20505;-83
2024/04/04 01:02:29;;;;;;;16.63;4.50;;;10.60;99.90;;;;;;4969644;28;20049;-84
2024/04/04 01:04:55;;;;;;;16.20;4.65;;;10.60;99.90;;;;;;4968294;28;20062;-82
2024/04/04 01:07:22;;;;;;;14.68;4.38;;;10.60;99.90;;;;;;4980890;28;20112;-82
2024/04/04 01:09:48;;;;;;;14.93;4.43;;;10.50;99.90;;;;;;4968693;28;20034;-81
2024/04/04 01:12:14;;;;;;;18.58;3.83;;;10.50;99.90;;;;;;5017503;28;20053;-82
2024/04/04 01:14:39;;;;;;;17.02;3.92;;;10.50;99.90;;;;;;4983004;28;20065;-82
2024/04/04 01:17:05;;;;;;;15.05;4.13;;;10.50;99.90;;;;;;4986791;28;20041;-82
2024/04/04 01:19:31;;;;;;;18.83;4.50;;;10.40;99.90;;;;;;4970310;28;20433;-81
2024/04/04 01:21:57;;;;;;;21.23;5.05;;;10.40;99.90;;;;;;4963376;28;20045;-81
2024/04/04 01:24:22;;;;;;;19.98;4.25;;;10.50;99.90;;;;;;4969289;28;20046;-82
2024/04/04 01:26:48;;;;;;;16.00;3.90;;;10.40;99.90;;;;;;4985658;28;20544;-83
2024/04/04 01:29:14;;;;;;;18.30;4.22;;;10.40;99.90;;;;;;4983246;28;20088;-82
2024/04/04 01:31:40;;;;;;;14.73;3.50;;;10.40;99.90;;;;;;4969684;28;20042;-81
2024/04/04 01:34:05;;;;;;;12.82;3.85;;;10.30;99.90;;;;;;4966844;28;20054;-81
2024/04/04 01:36:31;;;;;;;14.15;3.97;;;10.30;99.90;;;;;;4998667;28;20046;-83
2024/04/04 01:38:57;;;;;;;16.02;3.92;;;10.20;99.90;;;;;;4968814;28;20049;-82
2024/04/04 01:41:23;;;;;;;14.65;4.28;;;10.20;99.90;;;;;;4968811;28;20060;-81
2024/04/04 01:43:51;;;;;;;16.20;4.10;;;10.20;99.90;;;;;;4981418;28;20054;-82
2024/04/04 01:46:17;;;;;;;14.90;3.72;;;10.10;99.90;;;;;;4974592;28;20471;-82
2024/04/04 01:48:42;;;;;;;16.42;4.20;;;10.10;99.90;;;;;;4961559;28;20045;-81
2024/04/04 01:51:08;;;;;;;19.85;3.95;;;10.00;99.90;;;;;;4983465;28;20038;-82
2024/04/04 01:53:35;;;;;;;15.45;3.83;;;9.90;99.90;;;;;;4986257;28;20041;-81
2024/04/04 01:56:01;;;;;;;16.27;3.80;;;9.90;99.90;;;;;;4969528;28;20069;-82
2024/04/04 01:58:27;;;;;;;13.90;3.30;;;9.80;99.90;;;;;;4971911;28;20076;-81
2024/04/04 02:00:53;;;;;;;16.33;3.35;;;9.80;99.90;;;;;;4987370;28;20685;-80
2024/04/04 02:03:19;;;;;;;11.30;3.55;;;9.70;99.90;;;;;;4990045;28;20462;-82
2024/04/04 02:05:44;;;;;;;13.57;3.33;;;9.70;99.90;;;;;;4969036;28;20438;-81
2024/04/04 02:08:10;;;;;;;14.05;3.40;;;9.70;99.90;;;;;;4972164;28;21349;-81
2024/04/04 02:10:36;;;;;;;17.90;4.38;;;9.60;99.90;;;;;;5002584;28;20046;-81
2024/04/04 02:13:03;;;;;;;12.80;3.70;;;9.50;99.90;;;;;;4988959;28;20525;-81
2024/04/04 02:15:29;;;;;;;13.68;3.78;;;9.50;99.90;;;;;;4973764;28;20533;-81
2024/04/04 02:17:55;;;;;;;8.32;3.17;;;9.40;99.90;;;;;;4971644;28;20049;-81
2024/04/04 02:20:25;;;;;;;13.93;3.45;;;9.40;99.90;;;;;;4988151;28;20529;-81
2024/04/04 02:22:50;;;;;;;13.50;3.28;;;9.30;99.90;;;;;;4973790;28;20052;-81
2024/04/04 02:25:17;;;;;;;10.52;2.78;;;9.30;99.90;;;;;;4969559;28;20045;-81
2024/04/04 02:27:46;;;;;;;18.30;4.70;;;9.20;99.90;;;;;;4987109;28;20054;-81
2024/04/04 02:30:12;;;;;;;14.93;3.50;;;9.30;99.90;;;;;;5019616;28;20114;-81
2024/04/04 02:32:38;;;;;;;17.25;3.45;;;9.20;99.90;;;;;;4973899;28;20038;-81
2024/04/04 02:35:04;;;;;;;14.75;3.67;;;9.20;99.90;;;;;;4987244;28;20640;-81
2024/04/04 02:37:30;;;;;;;17.40;3.10;;;9.10;99.90;;;;;;4974278;28;20048;-81
2024/04/04 02:39:56;;;;;;;13.40;3.33;;;9.10;99.90;;;;;;4988580;28;20052;-81
2024/04/04 02:42:22;;;;;;;11.93;2.95;;;9.00;99.90;;;;;;4971932;28;20041;-81
2024/04/04 02:44:48;;;;;;;14.52;3.70;;;9.10;99.90;;;;;;5003560;28;20306;-81
2024/04/04 02:47:14;;;;;;;17.17;3.35;;;9.00;99.90;;;;;;4969015;28;20082;-81
2024/04/04 02:49:39;;;;;;;12.63;3.38;;;9.00;99.90;;;;;;4974792;28;20116;-81
2024/04/04 02:52:05;;;;;;;10.95;3.28;;;9.00;99.90;;;;;;4998588;28;20137;-81
2024/04/04 02:54:31;;;;;;;13.88;3.92;;;9.00;99.90;;;;;;4990617;28;20060;-81
2024/04/04 02:56:57;;;;;;;11.10;2.88;;;9.00;99.90;;;;;;4989573;28;20447;-81
2024/04/04 02:59:23;;;;;;;14.15;3.13;;;8.90;99.90;;;;;;4966017;28;20038;-81
2024/04/04 03:01:49;;;;;;;9.95;3.58;;;8.90;99.90;;;;;;4986150;28;20111;-81
2024/04/04 03:04:14;;;;;;;10.02;2.78;;;8.90;99.90;;;;;;4971512;28;20070;-81
2024/04/04 03:06:40;;;;;;;13.30;3.15;;;8.90;99.90;;;;;;5006166;28;20123;-81
2024/04/04 03:09:08;;;;;;;12.07;3.42;;;8.90;99.90;;;;;;4989049;28;20058;-81
2024/04/04 03:11:36;;;;;;;12.82;2.88;;;8.90;99.90;;;;;;4986203;28;20395;-80
2024/04/04 03:14:02;;;;;;;16.73;4.03;;;8.80;99.90;;;;;;4969917;28;20426;-81
2024/04/04 03:16:29;;;;;;;11.90;3.63;;;8.80;99.90;;;;;;4972390;28;20052;-81
2024/04/04 03:18:54;;;;;;;10.70;3.22;;;8.90;99.90;;;;;;4967879;28;20527;-81
2024/04/04 03:21:20;;;;;;;15.65;3.70;;;8.80;99.90;;;;;;4989701;28;20133;-82
2024/04/04 03:23:46;;;;;;;9.70;2.38;;;8.70;99.90;;;;;;4984509;28;20057;-81
2024/04/04 03:26:12;;;;;;;17.05;3.15;;;8.80;99.90;;;;;;4973554;28;20046;-81
2024/04/04 03:28:41;;;;;;;10.60;2.53;;;8.70;99.90;;;;;;4969389;28;20040;-81
2024/04/04 03:31:07;;;;;;;12.20;2.78;;;8.70;99.90;;;;;;4968298;28;20054;-82
2024/04/04 03:33:33;;;;;;;11.13;3.40;;;8.70;99.90;;;;;;4990074;28;20050;-81
2024/04/04 03:36:03;;;;;;;12.45;3.47;;;8.70;99.90;;;;;;4988869;28;20049;-81
2024/04/04 03:38:30;;;;;;;12.15;3.05;;;8.70;99.90;;;;;;5004642;28;20073;-81
2024/04/04 03:40:56;;;;;;;9.88;3.65;;;8.70;99.90;;;;;;4983982;28;20058;-81
2024/04/04 03:43:23;;;;;;;11.95;2.72;;;8.70;99.90;;;;;;4972943;28;20042;-81
2024/04/04 03:45:49;;;;;;;9.90;2.92;;;8.80;99.90;;;;;;4983942;28;20078;-81
2024/04/04 03:48:18;;;;;;;11.85;2.92;;;8.80;99.90;;;;;;4990269;28;20081;-81
2024/04/04 03:50:44;;;;;;;10.30;3.10;;;8.80;99.90;;;;;;4984307;28;20390;-81
2024/04/04 03:53:11;;;;;;;14.90;3.30;;;8.80;99.90;;;;;;4969711;28;20038;-82
2024/04/04 03:55:36;;;;;;;13.70;3.15;;;8.80;99.90;;;;;;4982111;28;20048;-81
2024/04/04 03:58:02;;;;;;;10.73;2.80;;;8.90;99.90;;;;;;4987068;28;20069;-80
2024/04/04 04:00:28;;;;;;;9.68;2.58;;;8.90;99.90;;;;;;4969840;28;20061;-81
2024/04/04 04:02:54;;;;;;;11.88;2.75;;;8.80;99.90;;;;;;4978921;28;20870;-81
2024/04/04 04:05:20;;;;;;;7.80;2.63;;;8.90;99.90;;;;;;4991295;28;20194;-82
2024/04/04 04:07:45;;;;;;;9.52;2.58;;;8.90;99.90;;;;;;5014644;28;20514;-81
2024/04/04 04:10:11;;;;;;;8.73;2.47;;;8.90;99.90;;;;;;4978514;28;20117;-81
2024/04/04 04:12:40;;;;;;;8.38;2.50;;;8.90;99.90;;;;;;4955381;28;20121;-81
2024/04/04 04:15:06;;;;;;;11.48;3.03;;;9.00;99.90;;;;;;4999388;28;20092;-80
2024/04/04 04:17:32;;;;;;;9.48;2.75;;;9.00;99.90;;;;;;4978472;28;20042;-81
2024/04/04 04:19:58;;;;;;;10.45;2.13;;;9.00;99.90;;;;;;4988871;28;20112;-81
2024/04/04 04:22:24;;;;;;;9.00;2.40;;;9.00;99.90;;;;;;4986984;28;20038;-81
2024/04/04 04:24:50;;;;;;;8.52;2.30;;;9.00;99.90;;;;;;4967975;28;20100;-80
2024/04/04 04:27:16;;;;;;;7.95;2.20;;;9.00;99.90;;;;;;4970230;28;20058;-81
2024/04/04 04:29:42;;;;;;;10.32;1.95;;;9.00;99.90;;;;;;4968119;28;20042;-81
2024/04/04 04:32:08;;;;;;;10.27;2.72;;;9.00;99.90;;;;;;4999486;28;20042;-80
2024/04/04 04:34:36;;;;;;;13.20;2.50;;;9.10;99.90;;;;;;4993796;28;20132;-81
2024/04/04 04:37:03;;;;;;;6.90;2.08;;;9.10;99.90;;;;;;4977737;28;20042;-82
2024/04/04 04:39:32;;;;;;;7.90;1.95;;;9.10;99.90;;;;;;4994036;28;20046;-82
2024/04/04 04:42:01;;;;;;;9.63;2.57;;;9.10;99.90;;;;;;4991190;28;20046;-81
2024/04/04 04:44:27;;;;;;;6.72;2.05;;;9.10;99.90;;;;;;4998539;28;20049;-81
2024/04/04 04:46:55;;;;;;;6.07;2.00;;;9.10;99.90;;;;;;4990817;28;20050;-81
2024/04/04 04:49:20;;;;;;;6.20;1.90;;;9.10;99.90;;;;;;4962054;28;20046;-81
2024/04/04 04:51:47;;;;;;;5.38;2.00;;;9.10;99.90;;;;;;4975908;28;20138;-81
2024/04/04 04:54:12;;;;;;;5.10;1.73;;;9.20;99.90;;;;;;4958782;28;20089;-80
2024/04/04 04:56:38;;;;;;;5.95;1.75;;;9.20;99.90;;;;;;5003100;28;20455;-80
2024/04/04 04:59:04;;;;;;;6.50;1.98;;;9.20;99.90;;;;;;4987071;28;20048;-82
2024/04/04 05:01:30;;;;;;;7.63;2.05;;;9.20;99.90;;;;;;4967961;28;20052;-81
2024/04/04 05:04:05;;;;;;;6.40;2.00;;;9.20;99.90;;;;;;4967286;28;20486;-81
2024/04/04 05:06:31;;;;;;;11.35;2.00;;;9.20;99.90;;;;;;5016445;28;20046;-80
2024/04/04 05:08:56;;;;;;;5.82;1.92;;;9.20;99.90;;;;;;4978385;28;20054;-80
2024/04/04 05:11:22;;;;;;;7.40;2.00;;;9.20;99.90;;;;;;4969276;28;20061;-81
2024/04/04 05:13:48;;;;;;;8.02;1.98;;;9.20;99.90;;;;;;4982600;28;20046;-80
2024/04/04 05:16:14;;;;;;;7.03;2.30;;;9.20;99.90;;;;;;4983545;28;20050;-80
2024/04/04 05:18:39;;;;;;;6.75;2.03;;;9.20;99.90;;;;;;5016119;28;20095;-80
2024/04/04 05:21:14;;;;;;;7.47;2.35;;;9.20;99.90;;;;;;4987577;28;20100;-80
2024/04/04 05:23:40;;;;;;;6.38;2.00;;;9.20;99.90;;;;;;4986137;28;20457;-80
2024/04/04 05:26:05;;;;;;;5.20;2.33;;;9.20;99.90;;;;;;4970381;28;20053;-81
2024/04/04 05:28:33;;;;;;;7.55;2.45;;;9.20;99.90;;;;;;4986679;28;20071;-80
2024/04/04 05:31:00;;;;;;;9.88;3.20;;;9.20;99.90;;;;;;4981483;28;20054;-81
2024/04/04 05:33:26;;;;;;;10.55;3.10;;;9.10;99.90;;;;;;4969516;28;20095;-81
2024/04/04 05:35:53;;;;;;;7.15;3.33;;;9.20;99.90;;;;;;4974941;28;20034;-81
2024/04/04 05:38:19;;;;;;;9.45;3.50;;;9.20;99.90;;;;;;4973202;28;20141;-80
2024/04/04 05:40:45;;;;;;;7.18;3.17;;;9.20;99.90;;;;;;4973362;28;20113;-81
2024/04/04 05:43:10;;;;;;;8.20;3.70;;;9.20;99.90;;;;;;4983332;28;20061;-80
2024/04/04 05:45:37;;;;;;;8.13;3.47;;;9.20;99.90;;;;;;4999069;28;20104;-81
2024/04/04 05:48:03;;;;;;;9.88;4.03;;;9.10;99.90;;;;;;4985107;28;20493;-81
2024/04/04 05:50:29;;;;;;;8.40;3.72;;;9.10;99.90;;;;;;4989533;28;20145;-82
2024/04/04 05:52:54;;;;;;;9.35;4.13;;;9.10;99.90;;;;;;4973412;28;20133;-80
2024/04/04 05:55:20;;;;;;;9.23;4.07;;;9.10;99.90;;;;;;4987774;28;20152;-81
2024/04/04 05:57:46;;;;;;;13.07;4.78;;;9.10;99.90;;;;;;4973933;28;20054;-81
2024/04/04 06:00:12;;;;;;;13.55;4.82;;;9.10;99.90;;;;;;4986941;28;20473;-81
2024/04/04 06:02:38;;;;;;;12.23;4.93;;;9.10;99.90;;;;;;4968387;28;20490;-81
2024/04/04 06:05:04;;;;;;;10.85;5.13;;;9.10;99.90;;;;;;4988246;28;20046;-81
2024/04/04 06:07:30;;;;;;;12.10;5.50;;;9.10;99.90;;;;;;4966965;28;20108;-82
2024/04/04 06:09:55;;;;;;;12.00;6.13;;;9.20;99.90;;;;;;4968499;28;20113;-83
2024/04/04 06:12:21;;;;;;;12.80;5.97;;;9.10;99.90;;;;;;4989350;28;20132;-83
2024/04/04 06:14:47;;;;;;;15.07;6.18;;;9.10;99.90;;;;;;4973236;28;20048;-84
2024/04/04 06:17:13;;;;;;;12.63;6.30;;;9.10;99.90;;;;;;4982984;28;20089;-84
2024/04/04 06:19:38;;;;;;;11.25;6.13;;;9.10;99.90;;;;;;4985434;28;20049;-84
2024/04/04 06:22:04;;;;;;;12.35;6.43;;;9.10;99.90;;;;;;4973016;28;20052;-83
2024/04/04 06:24:30;;;;;;;16.17;7.10;;;9.20;99.90;;;;;;4969771;28;20069;-83
2024/04/04 06:26:55;;;;;;;12.90;6.97;;;9.20;99.90;;;;;;4973033;28;20065;-84
2024/04/04 06:29:23;;;;;;;12.90;6.90;;;9.20;99.90;;;;;;4988730;28;20049;-82
2024/04/04 06:31:49;;;;;;;10.40;6.45;;;9.20;99.90;;;;;;4968082;28;20058;-84
2024/04/04 06:34:16;;;;;;;13.95;7.47;;;9.10;99.90;;;;;;4974159;28;20056;-83
2024/04/04 06:36:42;;;;;;;14.88;8.10;;;9.10;99.90;;;;;;4980189;28;20402;-83
2024/04/04 06:39:09;;;;;;;12.52;7.20;;;9.20;99.90;;;;;;4973013;28;20049;-83
2024/04/04 06:41:35;;;;;;;12.95;7.28;;;9.20;99.90;;;;;;4983399;28;20050;-82
2024/04/04 06:44:01;;;;;;;14.15;7.72;;;9.20;99.90;;;;;;4971230;28;20104;-82
2024/04/04 06:46:27;;;;;;;11.07;7.55;;;9.20;99.90;;;;;;4972943;28;20506;-82
2024/04/04 06:48:52;;;;;;;15.27;8.38;;;9.20;99.90;;;;;;4988149;28;20042;-82
2024/04/04 06:51:18;;;;;;;13.95;7.65;;;9.20;99.90;;;;;;4971300;28;20061;-83
2024/04/04 06:53:44;;;;;;;14.30;8.43;;;9.30;99.90;;;;;;4970286;28;20038;-82
2024/04/04 06:56:10;;;;;;;12.10;7.65;;;9.30;99.90;;;;;;4983893;28;20096;-83
2024/04/04 06:58:36;;;;;;;12.57;7.85;;;9.30;99.90;;;;;;5002226;28;20065;-83
2024/04/04 07:01:02;;;;;;;12.00;8.60;;;9.40;99.90;;;;;;4972397;28;20049;-83
2024/04/04 07:03:27;;;;;;;10.93;7.43;;;9.30;99.90;;;;;;4972767;28;20783;-83
2024/04/04 07:05:54;;;;;;;12.93;8.45;;;9.40;99.90;;;;;;4987912;28;20044;-83
2024/04/04 07:08:20;;;;;;;13.13;8.27;;;9.40;99.90;;;;;;4986239;28;20108;-83
2024/04/04 07:10:46;;;;;;;11.85;9.10;;;9.40;99.90;;;;;;4973927;28;20041;-82
2024/04/04 07:13:14;;;;;;;9.85;8.30;;;9.40;99.90;;;;;;4971037;28;20050;-83
2024/04/04 07:15:40;;;;;;;14.68;8.70;;;9.50;99.90;;;;;;5006137;28;20042;-82
2024/04/04 07:18:11;;;;;;;10.98;8.65;;;9.50;99.90;;;;;;4986304;28;20041;-82
2024/04/04 07:20:38;;;;;;;10.93;8.65;;;9.50;99.90;;;;;;5004080;28;20050;-84
2024/04/04 07:23:04;;;;;;;14.57;10.55;;;9.60;99.90;;;;;;4971088;28;20088;-82
2024/04/04 07:25:30;;;;;;;12.00;10.63;;;9.60;99.90;;;;;;4985114;28;22337;-82
2024/04/04 07:27:56;;;;;;;13.10;10.88;;;9.70;99.90;;;;;;4969680;28;20571;-82
2024/04/04 07:30:22;;;;;;;12.27;10.02;;;9.70;99.90;;;;;;4971608;28;20109;-83
2024/04/04 07:32:48;;;;;;;11.93;10.68;;;9.70;99.90;;;;;;4969866;28;20695;-82
2024/04/04 07:35:14;;;;;;;12.40;10.85;;;9.70;99.90;;;;;;4970562;28;20073;-81
2024/04/04 07:37:40;;;;;;;12.90;11.50;;;9.80;99.90;;;;;;4986694;28;20494;-81
2024/04/04 07:40:07;;;;;;;11.60;10.25;;;9.80;99.90;;;;;;4973768;28;20049;-82
2024/04/04 07:42:33;;;;;;;14.77;11.50;;;9.90;99.90;;;;;;4969962;28;20084;-82
2024/04/04 07:44:59;;;;;;;12.70;11.40;;;9.80;99.90;;;;;;4971958;28;20046;-82
2024/04/04 07:47:25;;;;;;;13.27;11.70;;;10.00;99.90;;;;;;4967888;28;20108;-81
2024/04/04 07:49:51;;;;;;;14.48;11.93;;;10.10;99.90;;;;;;4988039;28;20046;-82
2024/04/04 07:52:16;;;;;;;13.13;11.82;;;10.10;99.90;;;;;;4982817;28;20612;-81
2024/04/04 07:54:44;;;;;;;12.10;11.02;;;10.20;99.90;;;;;;4972355;28;20513;-82
2024/04/04 07:57:10;;;;;;;13.38;11.05;;;10.30;99.90;;;;;;4997599;28;20041;-82
2024/04/04 07:59:38;;;;;;;11.95;10.80;;;10.30;99.90;;;;;;4971738;28;20127;-82
2024/04/04 08:02:05;;;;;;;13.40;11.98;;;10.40;99.90;;;;;;4972698;28;20180;-82
2024/04/04 08:04:31;;;;;;;12.43;11.20;;;10.40;99.90;;;;;;4965846;28;20061;-81
2024/04/04 08:06:57;;;;;;;11.57;10.48;;;10.40;99.90;;;;;;4967646;28;20052;-82
2024/04/04 08:09:23;;;;;;;11.90;10.70;;;10.40;99.90;;;;;;4984907;28;20582;-81
2024/04/04 08:11:52;;;;;;;12.07;10.88;;;10.50;99.90;;;;;;4968478;28;20057;-81
2024/04/04 08:14:18;;;;;;;11.65;10.55;;;10.50;99.90;;;;;;4971481;28;20443;-81
2024/04/04 08:16:44;;;;;;;11.50;10.20;;;10.50;99.90;;;;;;4984810;28;20040;-82
2024/04/04 08:19:10;;;;;;;11.25;10.15;;;10.50;99.90;;;;;;4970214;28;20487;-81
2024/04/04 08:21:35;;;;;;;11.80;10.70;;;10.50;99.90;;;;;;4968019;28;20089;-81
2024/04/04 08:24:01;;;;;;;11.63;10.27;;;10.60;99.90;;;;;;4984828;28;20046;-81
2024/04/04 08:26:27;;;;;;;12.15;10.10;;;10.60;99.90;;;;;;4984077;28;20077;-82
2024/04/04 08:28:53;;;;;;;11.77;10.05;;;10.60;99.90;;;;;;5000028;28;20045;-81
2024/04/04 08:31:20;;;;;;;11.25;9.95;;;10.70;99.90;;;;;;4984518;28;20052;-81
2024/04/04 08:33:46;;;;;;;11.88;9.13;;;10.70;99.90;;;;;;4970311;28;20089;-81
2024/04/04 08:36:12;;;;;;;9.45;7.68;;;10.70;99.90;;;;;;4967733;28;20172;-82
2024/04/04 08:38:38;;;;;;;7.40;6.50;;;10.70;99.90;;;;;;4968122;28;20053;-83
2024/04/04 08:41:13;;;;;;;8.82;7.25;;;10.70;99.90;;;;;;4970852;28;20108;-82
2024/04/04 08:43:42;;;;;;;7.72;6.93;;;10.80;99.90;;;;;;4985796;28;20049;-83
2024/04/04 08:46:13;;;;;;;10.07;6.85;;;10.90;99.90;;;;;;4985280;28;20051;-82
2024/04/04 08:48:42;;;;;;;7.93;7.13;;;10.90;99.90;;;;;;4972331;28;20042;-82
2024/04/04 08:51:12;;;;;;;9.95;7.47;;;10.90;99.90;;;;;;4970641;28;20671;-82
2024/04/04 08:53:38;;;;;;;8.43;7.38;;;11.00;99.90;;;;;;4985486;28;20054;-82
2024/04/04 08:56:05;;;;;;;8.77;6.40;;;11.10;99.90;;;;;;5016849;28;20037;-82
2024/04/04 08:58:31;;;;;;;7.53;6.57;;;11.10;99.90;;;;;;4967048;28;20085;-82
2024/04/04 09:01:00;;;;;;;9.50;7.35;;;11.10;99.90;;;;;;4971552;28;20048;-83
2024/04/04 09:03:26;;;;;;;7.53;6.80;;;11.10;99.90;;;;;;4985390;28;20045;-83
2024/04/04 09:06:48;;;;;;;8.00;6.68;;;11.20;99.90;;;;;;4968489;28;20687;-82
2024/04/04 09:19:55;;;;;;;8.95;7.28;;;11.30;99.90;;;;;;4927927;28;20047;-84
2024/04/04 09:22:25;;;;;;;10.13;7.13;;;11.30;99.90;;;;;;4969399;28;20402;-83
2024/04/04 09:24:59;;;;;;;7.43;6.57;;;11.40;99.90;;;;;;4970747;28;20782;-83
2024/04/04 09:27:26;;;;;;;9.40;6.40;;;11.40;99.90;;;;;;4971344;28;20045;-85
2024/04/04 09:29:52;;;;;;;9.15;6.60;;;11.50;99.90;;;;;;4968886;28;20061;-83
2024/04/04 09:32:19;;;;;;;7.97;6.88;;;11.50;99.90;;;;;;4970184;28;20124;-85
2024/04/04 09:34:46;;;;;;;10.27;7.80;;;11.60;99.90;;;;;;4969787;28;20046;-85
2024/04/04 09:37:15;;;;;;;8.80;7.07;;;11.60;99.90;;;;;;4984934;28;20679;-84
2024/04/04 09:39:44;;;;;;;13.07;8.45;;;11.60;99.90;;;;;;4968992;28;20050;-84
2024/04/04 09:42:10;;;;;;;9.05;7.80;;;11.50;99.90;;;;;;4981452;28;20044;-85
2024/04/04 09:44:36;;;;;;;9.77;7.80;;;11.60;99.90;;;;;;4983295;28;20421;-84
2024/04/04 09:47:03;;;;;;;10.57;7.93;;;11.60;99.90;;;;;;4982901;28;20570;-84
2024/04/04 09:49:31;;;;;;;10.02;8.38;;;11.60;99.90;;;;;;4970181;28;20049;-85
2024/04/04 09:52:01;;;;;;;10.20;8.82;;;11.60;99.90;;;;;;4987471;28;20041;-86
2024/04/04 09:54:29;;;;;;;11.30;8.32;;;11.70;99.90;;;;;;4965989;28;20136;-84
2024/04/04 09:56:56;;;;;;;12.60;10.02;;;11.70;99.90;;;;;;4970629;28;20050;-84
2024/04/04 09:59:30;;;;;;;12.02;9.15;;;11.70;99.90;;;;;;4969393;28;20045;-84
2024/04/04 10:02:05;;;;;;;12.63;8.48;;;11.60;99.90;;;;;;5014223;28;20554;-82
2024/04/04 10:04:35;;;;;;;10.35;8.88;;;11.60;99.90;;;;;;4986508;28;20482;-81
2024/04/04 10:07:02;;;;;;;11.82;9.45;;;11.60;99.90;;;;;;4968581;28;20050;-82
2024/04/04 10:09:38;;;;;;;11.50;8.77;;;11.60;99.90;;;;;;4972612;28;20438;-82
2024/04/04 10:12:12;;;;;;;12.27;8.80;;;11.60;99.90;;;;;;4969337;28;20049;-81
2024/04/04 10:14:52;;;;;;;17.83;8.48;;;11.60;99.90;;;;;;4988035;28;20084;-82
2024/04/04 10:17:18;;;;;;;11.13;7.93;;;11.60;99.90;;;;;;4982062;28;20112;-80
2024/04/04 10:19:48;;;;;;;8.23;6.28;;;11.60;99.90;;;;;;4982535;28;20045;-80
2024/04/04 10:22:18;;;;;;;6.72;4.15;;;11.70;99.90;;;;;;4973525;28;20057;-80
2024/04/04 10:24:44;;;;;;;6.90;4.20;;;11.60;99.90;;;;;;4989324;28;20568;-80
2024/04/04 10:27:13;;;;;;;7.93;4.13;;;11.60;99.90;;;;;;4970171;28;20046;-79
2024/04/04 10:29:40;;;;;;;6.32;3.85;;;11.60;99.90;;;;;;4985189;28;20053;-79
2024/04/04 10:32:06;;;;;;;3.85;2.40;;;11.60;99.90;;;;;;4969271;28;20387;-81
2024/04/04 10:34:33;;;;;;;6.30;2.70;;;11.60;99.90;;;;;;4970438;28;20042;-81
2024/04/04 10:36:59;;;;;;;6.25;2.88;;;11.50;99.90;;;;;;4973296;28;20490;-81
2024/04/04 10:39:25;;;;;;;5.70;3.20;;;11.50;99.90;;;;;;4986471;28;20129;-80
2024/04/04 10:42:00;;;;;;;7.40;3.17;;;11.50;99.90;;;;;;5018577;28;20137;-80
2024/04/04 10:44:26;;;;;;;5.65;4.40;;;11.60;99.90;;;;;;4972953;28;20042;-81
2024/04/04 10:46:56;;;;;;;8.27;5.35;;;11.70;99.90;;;;;;5004757;28;20048;-82
2024/04/04 10:49:26;;;;;;;13.25;8.27;;;11.80;99.90;;;;;;4985475;28;20049;-82
2024/04/04 10:51:59;;;;;;;14.35;8.95;;;12.00;99.90;;;;;;4972726;28;20034;-84
2024/04/04 10:54:27;;;;;;;12.57;8.77;;;12.10;99.90;;;;;;4971208;28;20398;-82
2024/04/04 10:56:53;;;;;;;13.02;8.45;;;12.10;99.90;;;;;;4986457;28;20045;-86
2024/04/04 10:59:29;;;;;;;12.43;8.57;;;12.30;99.90;;;;;;4988943;28;20081;-82
2024/04/04 11:01:55;;;;;;;12.73;7.30;;;12.30;99.90;;;;;;4986974;28;20046;-80
2024/04/04 11:04:24;;;;;;;19.05;8.52;;;12.30;99.90;;;;;;5015324;28;20097;-80
2024/04/04 11:06:50;;;;;;;15.77;6.43;;;12.30;99.90;;;;;;4969705;28;20168;-82
2024/04/04 11:09:20;;;;;;;14.88;5.78;;;12.30;99.90;;;;;;5005174;28;20269;-81
2024/04/04 11:11:54;;;;;;;15.70;6.00;;;12.20;99.90;;;;;;5001474;28;20046;-79
2024/04/04 11:14:21;;;;;;;13.25;5.68;;;12.10;99.90;;;;;;5016471;28;20077;-80
2024/04/04 11:16:49;;;;;;;14.95;7.20;;;12.10;99.90;;;;;;5001403;28;20509;-81
2024/04/04 11:19:16;;;;;;;15.10;7.60;;;12.10;99.90;;;;;;4972337;28;20052;-83
2024/04/04 11:21:42;;;;;;;14.85;7.35;;;12.00;99.90;;;;;;4985064;28;20182;-82
2024/04/04 11:24:11;;;;;;;14.25;6.68;;;12.10;99.90;;;;;;4969405;28;20030;-81
2024/04/04 11:26:37;;;;;;;12.88;7.72;;;12.10;99.90;;;;;;4971373;28;20490;-81
2024/04/04 11:29:03;;;;;;;14.35;6.85;;;12.20;99.90;;;;;;4971576;28;20052;-87
2024/04/04 11:31:29;;;;;;;11.38;6.80;;;12.30;99.90;;;;;;4971078;28;20043;-83
2024/04/04 11:33:55;;;;;;;18.08;5.70;;;12.30;99.90;;;;;;4968776;28;20046;-83
2024/04/04 11:36:22;;;;;;;11.27;4.72;;;12.40;99.90;;;;;;4970849;28;20658;-82
2024/04/04 11:38:47;;;;;;;14.48;5.47;;;12.20;99.90;;;;;;4987248;28;20080;-81
2024/04/04 11:41:18;;;;;;;13.45;5.05;;;12.10;99.90;;;;;;4970082;28;20088;-83
2024/04/04 11:43:43;;;;;;;9.63;2.50;;;12.00;99.90;;;;;;4983953;28;20054;-82
2024/04/04 11:46:12;;;;;;;5.93;2.70;;;11.90;99.90;;;;;;4990033;28;20185;-85
2024/04/04 11:48:41;;;;;;;12.90;4.47;;;11.90;99.90;;;;;;4971677;28;20042;-83
2024/04/04 11:51:09;;;;;;;12.60;3.73;;;12.00;99.90;;;;;;4973685;28;20558;-86
2024/04/04 11:53:35;;;;;;;16.42;4.90;;;12.20;99.90;;;;;;4973733;28;20553;-82
2024/04/04 11:56:05;;;;;;;13.18;3.95;;;12.50;99.90;;;;;;5005049;28;20053;-84
2024/04/04 11:58:32;;;;;;;16.25;5.00;;;12.80;99.90;;;;;;4973738;28;20172;-83
2024/04/04 12:00:59;;;;;;;15.52;3.95;;;13.00;99.90;;;;;;4972076;28;20073;-84
2024/04/04 12:03:27;;;;;;;17.00;4.03;;;13.10;99.90;;;;;;4988965;28;20410;-83
2024/04/04 12:05:55;;;;;;;11.90;3.33;;;13.20;99.90;;;;;;4971564;28;20042;-88
2024/04/04 12:08:21;;;;;;;12.50;3.60;;;13.20;99.90;;;;;;4987613;28;20041;-89
2024/04/04 12:10:50;;;;;;;15.90;3.22;;;13.10;99.90;;;;;;5019816;28;20495;-86
2024/04/04 12:13:16;;;;;;;14.13;3.22;;;13.00;99.90;;;;;;4991742;28;20100;-86
2024/04/04 12:15:48;;;;;;;13.00;2.97;;;12.90;99.90;;;;;;5021338;28;20042;-92
2024/04/04 12:21:01;;;;;;;14.05;3.08;;;12.90;99.90;;;;;;4991198;28;20092;-87
2024/04/04 12:23:27;;;;;;;14.38;3.13;;;12.90;99.90;;;;;;4970344;28;20057;-90
2024/04/04 12:25:52;;;;;;;16.38;4.03;;;13.00;99.90;;;;;;4972055;28;20038;-87
2024/04/04 12:28:19;;;;;;;12.05;2.35;;;13.30;99.90;;;;;;4974702;28;20046;-90
2024/04/04 12:30:45;;;;;;;12.57;3.10;;;13.50;99.90;;;;;;5008817;28;20069;-87
2024/04/04 12:33:10;;;;;;;15.80;3.35;;;13.50;99.90;;;;;;4989709;28;20077;-90
2024/04/04 12:35:37;;;;;;;16.15;3.97;;;13.60;99.90;;;;;;4974789;28;20080;-87
2024/04/04 12:38:02;;;;;;;13.98;3.05;;;13.50;99.90;;;;;;4987427;28;20587;-90
2024/04/04 12:40:28;;;;;;;16.23;3.28;;;13.50;99.90;;;;;;4992900;28;20049;-86
2024/04/04 12:42:54;;;;;;;10.85;2.60;;;13.40;99.90;;;;;;4983838;28;20133;-91
2024/04/04 12:45:20;;;;;;;19.17;3.65;;;13.40;99.90;;;;;;4988597;28;20046;-90
2024/04/04 12:47:54;;;;;;;12.80;2.83;;;13.30;99.90;;;;;;5005005;28;20129;-90
2024/04/04 12:50:23;;;;;;;17.10;3.25;;;13.20;99.90;;;;;;5005327;28;20577;-88
2024/04/04 12:52:50;;;;;;;18.50;3.75;;;13.10;99.90;;;;;;4989518;28;20073;-89
2024/04/04 12:55:16;;;;;;;13.75;3.17;;;13.00;99.90;;;;;;4989669;28;20076;-89